createdAt,value
2022-10-19T12:13:22.698Z,1016.16
2022-10-19T12:14:22.668Z,1016.12
2022-10-19T12:15:22.649Z,1016.06
2022-10-19T12:16:22.644Z,1016.03
2022-10-19T12:17:22.617Z,1016.04
2022-10-19T12:19:35.623Z,1015.98
2022-10-19T12:20:35.603Z,1015.98
2022-10-19T12:21:35.585Z,1015.91
2022-10-19T12:22:35.579Z,1015.97
2022-10-19T12:23:35.541Z,1015.95
2022-10-19T12:24:35.538Z,1015.93
2022-10-19T12:25:35.508Z,1015.91
2022-10-19T12:26:35.491Z,1015.92
2022-10-19T12:27:35.723Z,1015.85
2022-10-19T12:28:35.589Z,1015.89
2022-10-19T12:29:35.452Z,1015.85
2022-10-19T12:30:35.424Z,1015.81
2022-10-19T12:31:35.416Z,1015.79
2022-10-19T12:32:35.393Z,1015.78
2022-10-19T12:33:35.400Z,1015.74
2022-10-19T12:34:35.372Z,1015.72
2022-10-19T12:35:35.353Z,1015.76
2022-10-19T12:36:35.343Z,1015.76
2022-10-19T12:37:35.579Z,1015.70
2022-10-19T12:38:35.308Z,1015.70
2022-10-19T12:39:35.280Z,1015.69
2022-10-19T12:40:35.266Z,1015.67
2022-10-19T12:41:35.248Z,1015.67
2022-10-19T12:42:35.244Z,1015.61
2022-10-19T12:43:35.242Z,1015.62
2022-10-19T12:44:35.212Z,1015.62
2022-10-19T12:45:35.198Z,1015.51
2022-10-19T12:46:35.181Z,1015.54
2022-10-19T12:47:35.426Z,1015.54
2022-10-19T12:48:35.164Z,1015.51
2022-10-19T12:49:35.133Z,1015.48
2022-10-19T12:50:37.775Z,1015.47
2022-10-19T12:51:35.096Z,1015.45
2022-10-19T12:52:35.330Z,1015.40
2022-10-19T12:53:35.087Z,1015.40
2022-10-19T12:54:35.049Z,1015.37
2022-10-19T12:55:35.078Z,1015.36
2022-10-19T12:56:35.022Z,1015.35
2022-10-19T12:57:35.370Z,1015.31
2022-10-19T12:58:35.000Z,1015.27
2022-10-19T12:59:34.983Z,1015.26
2022-10-19T13:00:35.048Z,1015.29
2022-10-19T13:01:34.944Z,1015.26
2022-10-19T13:02:34.942Z,1015.28
2022-10-19T13:03:34.934Z,1015.23
2022-10-19T13:04:34.911Z,1015.23
2022-10-19T13:05:34.893Z,1015.23
2022-10-19T13:06:34.877Z,1015.22
2022-10-19T13:07:35.225Z,1015.24
2022-10-19T13:08:34.899Z,1015.25
2022-10-19T13:09:34.823Z,1015.23
2022-10-19T13:10:34.820Z,1015.21
2022-10-19T13:12:35.082Z,1015.16
2022-10-19T13:13:34.773Z,1015.16
2022-10-19T13:14:34.762Z,1015.10
2022-10-19T13:15:34.735Z,1015.09
2022-10-19T13:16:34.721Z,1015.03
2022-10-19T13:17:34.918Z,1015.02
2022-10-19T13:18:34.693Z,1014.98
2022-10-19T13:19:34.698Z,1015.01
2022-10-19T13:20:34.706Z,1014.99
2022-10-19T13:21:34.659Z,1014.99
2022-10-19T13:22:34.801Z,1015.03
2022-10-19T13:23:34.620Z,1015.01
2022-10-19T13:24:34.719Z,1015.03
2022-10-19T13:25:34.592Z,1014.96
2022-10-19T13:26:34.582Z,1014.99
2022-10-19T13:27:35.032Z,1014.97
2022-10-19T13:28:34.559Z,1015.00
2022-10-19T13:29:34.595Z,1014.95
2022-10-19T13:30:34.531Z,1014.93
2022-10-19T13:31:34.517Z,1014.93
2022-10-19T13:32:34.760Z,1014.88
2022-10-19T13:33:34.508Z,1014.84
2022-10-19T13:34:34.484Z,1014.84
2022-10-19T13:35:34.473Z,1014.84
2022-10-19T13:36:34.437Z,1014.85
2022-10-19T13:37:34.901Z,1014.83
2022-10-19T13:39:34.400Z,1014.82
2022-10-19T13:40:34.405Z,1014.83
2022-10-19T13:41:34.363Z,1014.87
2022-10-19T13:42:34.677Z,1014.87
2022-10-19T13:43:34.347Z,1014.90
2022-10-19T13:44:34.320Z,1014.87
2022-10-19T13:45:34.315Z,1014.87
2022-10-19T13:46:34.314Z,1014.83
2022-10-19T13:47:34.683Z,1014.80
2022-10-19T13:48:34.276Z,1014.81
2022-10-19T13:49:34.416Z,1014.80
2022-10-19T13:50:34.234Z,1014.82
2022-10-19T13:51:34.234Z,1014.78
2022-10-19T13:52:34.464Z,1014.74
2022-10-19T13:53:34.201Z,1014.73
2022-10-19T13:54:34.225Z,1014.75
2022-10-19T13:55:34.314Z,1014.75
2022-10-19T13:56:34.284Z,1014.71
2022-10-19T13:57:34.460Z,1014.70
2022-10-19T13:58:34.195Z,1014.69
2022-10-19T13:59:34.107Z,1014.68
2022-10-19T14:00:34.102Z,1014.67
2022-10-19T14:01:34.126Z,1014.69
2022-10-19T14:02:34.414Z,1014.67
2022-10-19T14:03:34.058Z,1014.66
